sensor_id;sensor_type;location;lat;lon;timestamp;P1;durP1;ratioP1;P2;durP2;ratioP2
9160;SDS011;4615;51.340;8.288;2022-10-13T00:00:37;25.23;;;20.60;;
9160;SDS011;4615;51.340;8.288;2022-10-13T00:03:05;22.87;;;20.47;;
9160;SDS011;4615;51.340;8.288;2022-10-13T00:05:32;29.43;;;22.97;;
9160;SDS011;4615;51.340;8.288;2022-10-13T00:07:58;28.73;;;22.23;;
9160;SDS011;4615;51.340;8.288;2022-10-13T00:10:25;26.50;;;20.70;;
9160;SDS011;4615;51.340;8.288;2022-10-13T00:12:52;26.20;;;19.90;;
9160;SDS011;4615;51.340;8.288;2022-10-13T00:15:18;24.40;;;19.27;;
9160;SDS011;4615;51.340;8.288;2022-10-13T00:17:45;21.90;;;19.60;;
9160;SDS011;4615;51.340;8.288;2022-10-13T00:20:13;23.03;;;19.40;;
9160;SDS011;4615;51.340;8.288;2022-10-13T00:22:39;21.37;;;18.00;;
9160;SDS011;4615;51.340;8.288;2022-10-13T00:25:06;29.83;;;20.60;;
9160;SDS011;4615;51.340;8.288;2022-10-13T00:27:32;21.27;;;18.87;;
9160;SDS011;4615;51.340;8.288;2022-10-13T00:29:59;28.43;;;20.87;;
9160;SDS011;4615;51.340;8.288;2022-10-13T00:32:25;27.40;;;20.03;;
9160;SDS011;4615;51.340;8.288;2022-10-13T00:34:51;20.63;;;16.90;;
9160;SDS011;4615;51.340;8.288;2022-10-13T00:37:19;22.60;;;18.63;;
9160;SDS011;4615;51.340;8.288;2022-10-13T00:39:46;28.37;;;21.40;;
9160;SDS011;4615;51.340;8.288;2022-10-13T00:42:12;31.07;;;20.43;;
9160;SDS011;4615;51.340;8.288;2022-10-13T00:44:58;22.13;;;15.87;;
9160;SDS011;4615;51.340;8.288;2022-10-13T00:47:25;21.27;;;16.57;;
9160;SDS011;4615;51.340;8.288;2022-10-13T00:49:52;26.33;;;15.77;;
9160;SDS011;4615;51.340;8.288;2022-10-13T00:52:21;20.00;;;14.47;;
9160;SDS011;4615;51.340;8.288;2022-10-13T00:54:48;18.70;;;15.33;;
9160;SDS011;4615;51.340;8.288;2022-10-13T00:57:14;21.10;;;15.83;;
9160;SDS011;4615;51.340;8.288;2022-10-13T00:59:41;17.20;;;15.20;;
9160;SDS011;4615;51.340;8.288;2022-10-13T01:02:08;21.30;;;15.57;;
9160;SDS011;4615;51.340;8.288;2022-10-13T01:04:36;47.70;;;16.20;;
9160;SDS011;4615;51.340;8.288;2022-10-13T01:07:03;70.37;;;16.87;;
9160;SDS011;4615;51.340;8.288;2022-10-13T01:09:31;34.17;;;17.13;;
9160;SDS011;4615;51.340;8.288;2022-10-13T01:12:03;25.57;;;15.20;;
9160;SDS011;4615;51.340;8.288;2022-10-13T01:14:37;19.00;;;14.73;;
9160;SDS011;4615;51.340;8.288;2022-10-13T01:17:08;18.97;;;15.47;;
9160;SDS011;4615;51.340;8.288;2022-10-13T01:19:44;17.23;;;14.00;;
9160;SDS011;4615;51.340;8.288;2022-10-13T01:22:18;22.53;;;14.93;;
9160;SDS011;4615;51.340;8.288;2022-10-13T01:24:51;20.13;;;14.90;;
9160;SDS011;4615;51.340;8.288;2022-10-13T01:27:37;20.50;;;14.50;;
9160;SDS011;4615;51.340;8.288;2022-10-13T01:30:09;19.80;;;13.17;;
9160;SDS011;4615;51.340;8.288;2022-10-13T01:32:42;16.00;;;13.80;;
9160;SDS011;4615;51.340;8.288;2022-10-13T01:35:13;20.17;;;14.07;;
9160;SDS011;4615;51.340;8.288;2022-10-13T01:37:42;15.30;;;12.47;;
9160;SDS011;4615;51.340;8.288;2022-10-13T01:40:10;17.73;;;12.40;;
9160;SDS011;4615;51.340;8.288;2022-10-13T01:42:42;14.73;;;12.10;;
9160;SDS011;4615;51.340;8.288;2022-10-13T01:45:13;18.73;;;12.53;;
9160;SDS011;4615;51.340;8.288;2022-10-13T01:47:41;18.17;;;12.53;;
9160;SDS011;4615;51.340;8.288;2022-10-13T01:50:08;19.40;;;11.63;;
9160;SDS011;4615;51.340;8.288;2022-10-13T01:52:36;15.13;;;11.87;;
9160;SDS011;4615;51.340;8.288;2022-10-13T01:55:04;17.87;;;12.40;;
9160;SDS011;4615;51.340;8.288;2022-10-13T01:57:32;16.93;;;11.20;;
9160;SDS011;4615;51.340;8.288;2022-10-13T01:59:59;17.33;;;10.83;;
9160;SDS011;4615;51.340;8.288;2022-10-13T02:02:28;13.67;;;11.00;;
9160;SDS011;4615;51.340;8.288;2022-10-13T02:05:00;13.43;;;11.03;;
9160;SDS011;4615;51.340;8.288;2022-10-13T02:07:28;15.47;;;11.10;;
9160;SDS011;4615;51.340;8.288;2022-10-13T02:09:57;16.53;;;11.80;;
9160;SDS011;4615;51.340;8.288;2022-10-13T02:12:26;17.13;;;12.67;;
9160;SDS011;4615;51.340;8.288;2022-10-13T02:14:55;15.57;;;12.77;;
9160;SDS011;4615;51.340;8.288;2022-10-13T02:17:25;17.37;;;12.80;;
9160;SDS011;4615;51.340;8.288;2022-10-13T02:19:54;15.03;;;11.57;;
9160;SDS011;4615;51.340;8.288;2022-10-13T02:22:21;12.23;;;10.93;;
9160;SDS011;4615;51.340;8.288;2022-10-13T02:24:49;13.93;;;11.20;;
9160;SDS011;4615;51.340;8.288;2022-10-13T02:27:15;15.83;;;11.77;;
9160;SDS011;4615;51.340;8.288;2022-10-13T02:29:49;14.57;;;11.73;;
9160;SDS011;4615;51.340;8.288;2022-10-13T02:32:16;13.30;;;11.00;;
9160;SDS011;4615;51.340;8.288;2022-10-13T02:34:42;14.93;;;11.33;;
9160;SDS011;4615;51.340;8.288;2022-10-13T02:37:10;12.73;;;10.80;;
9160;SDS011;4615;51.340;8.288;2022-10-13T02:39:36;15.80;;;10.00;;
9160;SDS011;4615;51.340;8.288;2022-10-13T02:42:03;13.63;;;9.70;;
9160;SDS011;4615;51.340;8.288;2022-10-13T02:44:29;12.80;;;9.50;;
9160;SDS011;4615;51.340;8.288;2022-10-13T02:46:56;17.00;;;11.00;;
9160;SDS011;4615;51.340;8.288;2022-10-13T02:49:22;12.43;;;10.03;;
9160;SDS011;4615;51.340;8.288;2022-10-13T02:51:49;14.43;;;9.83;;
9160;SDS011;4615;51.340;8.288;2022-10-13T02:54:17;13.07;;;9.50;;
9160;SDS011;4615;51.340;8.288;2022-10-13T02:56:43;15.77;;;10.63;;
9160;SDS011;4615;51.340;8.288;2022-10-13T02:59:10;15.40;;;11.63;;
9160;SDS011;4615;51.340;8.288;2022-10-13T03:01:37;14.63;;;10.47;;
9160;SDS011;4615;51.340;8.288;2022-10-13T03:04:05;12.33;;;9.97;;
9160;SDS011;4615;51.340;8.288;2022-10-13T03:06:31;15.33;;;11.47;;
9160;SDS011;4615;51.340;8.288;2022-10-13T03:08:58;18.03;;;11.57;;
9160;SDS011;4615;51.340;8.288;2022-10-13T03:11:26;17.63;;;11.80;;
9160;SDS011;4615;51.340;8.288;2022-10-13T03:13:52;19.03;;;12.87;;
9160;SDS011;4615;51.340;8.288;2022-10-13T03:16:18;18.90;;;13.57;;
9160;SDS011;4615;51.340;8.288;2022-10-13T03:18:45;19.30;;;13.47;;
9160;SDS011;4615;51.340;8.288;2022-10-13T03:21:11;18.13;;;14.27;;
9160;SDS011;4615;51.340;8.288;2022-10-13T03:23:38;20.70;;;15.00;;
9160;SDS011;4615;51.340;8.288;2022-10-13T03:26:04;16.93;;;14.87;;
9160;SDS011;4615;51.340;8.288;2022-10-13T03:28:32;21.27;;;15.07;;
9160;SDS011;4615;51.340;8.288;2022-10-13T03:30:59;22.10;;;14.97;;
9160;SDS011;4615;51.340;8.288;2022-10-13T03:33:25;19.67;;;15.50;;
9160;SDS011;4615;51.340;8.288;2022-10-13T03:35:51;22.77;;;16.77;;
9160;SDS011;4615;51.340;8.288;2022-10-13T03:38:18;24.90;;;17.13;;
9160;SDS011;4615;51.340;8.288;2022-10-13T03:40:44;21.67;;;15.90;;
9160;SDS011;4615;51.340;8.288;2022-10-13T03:43:11;19.60;;;15.90;;
9160;SDS011;4615;51.340;8.288;2022-10-13T03:45:38;22.17;;;15.70;;
9160;SDS011;4615;51.340;8.288;2022-10-13T03:48:05;19.17;;;15.33;;
9160;SDS011;4615;51.340;8.288;2022-10-13T03:50:31;21.50;;;16.40;;
9160;SDS011;4615;51.340;8.288;2022-10-13T03:52:57;17.73;;;15.03;;
9160;SDS011;4615;51.340;8.288;2022-10-13T03:55:24;21.47;;;15.60;;
9160;SDS011;4615;51.340;8.288;2022-10-13T03:57:50;18.27;;;13.27;;
9160;SDS011;4615;51.340;8.288;2022-10-13T04:00:17;17.03;;;13.77;;
9160;SDS011;4615;51.340;8.288;2022-10-13T04:02:45;20.77;;;14.07;;
9160;SDS011;4615;51.340;8.288;2022-10-13T04:05:13;20.33;;;15.70;;
9160;SDS011;4615;51.340;8.288;2022-10-13T04:07:40;22.73;;;15.37;;
9160;SDS011;4615;51.340;8.288;2022-10-13T04:10:06;21.20;;;15.63;;
9160;SDS011;4615;51.340;8.288;2022-10-13T04:12:33;21.37;;;16.53;;
9160;SDS011;4615;51.340;8.288;2022-10-13T04:14:59;23.33;;;16.00;;
9160;SDS011;4615;51.340;8.288;2022-10-13T04:17:26;20.40;;;16.37;;
9160;SDS011;4615;51.340;8.288;2022-10-13T04:19:53;17.90;;;15.17;;
9160;SDS011;4615;51.340;8.288;2022-10-13T04:22:20;17.50;;;14.57;;
9160;SDS011;4615;51.340;8.288;2022-10-13T04:24:46;19.17;;;14.80;;
9160;SDS011;4615;51.340;8.288;2022-10-13T04:27:12;22.13;;;15.73;;
9160;SDS011;4615;51.340;8.288;2022-10-13T04:29:40;22.07;;;15.90;;
9160;SDS011;4615;51.340;8.288;2022-10-13T04:32:07;22.90;;;16.40;;
9160;SDS011;4615;51.340;8.288;2022-10-13T04:34:33;22.43;;;17.63;;
9160;SDS011;4615;51.340;8.288;2022-10-13T04:37:01;25.33;;;20.13;;
9160;SDS011;4615;51.340;8.288;2022-10-13T04:39:27;22.03;;;17.47;;
9160;SDS011;4615;51.340;8.288;2022-10-13T04:41:54;24.00;;;20.17;;
9160;SDS011;4615;51.340;8.288;2022-10-13T04:44:20;25.10;;;21.07;;
9160;SDS011;4615;51.340;8.288;2022-10-13T04:46:46;27.27;;;19.43;;
9160;SDS011;4615;51.340;8.288;2022-10-13T04:49:13;22.73;;;17.27;;
9160;SDS011;4615;51.340;8.288;2022-10-13T04:51:40;25.03;;;18.17;;
9160;SDS011;4615;51.340;8.288;2022-10-13T04:54:08;22.57;;;18.43;;
9160;SDS011;4615;51.340;8.288;2022-10-13T04:56:34;24.43;;;18.63;;
9160;SDS011;4615;51.340;8.288;2022-10-13T04:59:01;24.97;;;19.00;;
9160;SDS011;4615;51.340;8.288;2022-10-13T05:01:29;21.60;;;16.70;;
9160;SDS011;4615;51.340;8.288;2022-10-13T05:03:57;23.90;;;17.77;;
9160;SDS011;4615;51.340;8.288;2022-10-13T05:06:24;26.43;;;19.57;;
9160;SDS011;4615;51.340;8.288;2022-10-13T05:08:51;29.40;;;21.93;;
9160;SDS011;4615;51.340;8.288;2022-10-13T05:11:19;29.17;;;24.20;;
9160;SDS011;4615;51.340;8.288;2022-10-13T05:13:45;30.00;;;25.00;;
9160;SDS011;4615;51.340;8.288;2022-10-13T05:16:12;34.07;;;26.70;;
9160;SDS011;4615;51.340;8.288;2022-10-13T05:18:39;31.13;;;23.47;;
9160;SDS011;4615;51.340;8.288;2022-10-13T05:21:07;29.10;;;24.63;;
9160;SDS011;4615;51.340;8.288;2022-10-13T05:23:33;28.93;;;22.27;;
9160;SDS011;4615;51.340;8.288;2022-10-13T05:26:01;26.53;;;22.97;;
9160;SDS011;4615;51.340;8.288;2022-10-13T05:28:29;25.97;;;21.90;;
9160;SDS011;4615;51.340;8.288;2022-10-13T05:30:55;26.63;;;21.80;;
9160;SDS011;4615;51.340;8.288;2022-10-13T05:33:21;29.53;;;23.57;;
9160;SDS011;4615;51.340;8.288;2022-10-13T05:35:48;26.87;;;22.47;;
9160;SDS011;4615;51.340;8.288;2022-10-13T05:38:14;26.43;;;21.30;;
9160;SDS011;4615;51.340;8.288;2022-10-13T05:40:40;26.07;;;20.27;;
9160;SDS011;4615;51.340;8.288;2022-10-13T05:43:07;25.27;;;19.23;;
9160;SDS011;4615;51.340;8.288;2022-10-13T05:45:35;21.97;;;18.83;;
9160;SDS011;4615;51.340;8.288;2022-10-13T05:48:01;23.00;;;17.77;;
9160;SDS011;4615;51.340;8.288;2022-10-13T05:50:27;21.60;;;18.27;;
9160;SDS011;4615;51.340;8.288;2022-10-13T05:52:54;22.60;;;19.00;;
9160;SDS011;4615;51.340;8.288;2022-10-13T05:55:21;18.97;;;16.20;;
9160;SDS011;4615;51.340;8.288;2022-10-13T05:57:48;21.30;;;15.63;;
9160;SDS011;4615;51.340;8.288;2022-10-13T06:00:17;22.07;;;18.47;;
9160;SDS011;4615;51.340;8.288;2022-10-13T06:02:48;23.83;;;18.87;;
9160;SDS011;4615;51.340;8.288;2022-10-13T06:05:17;21.77;;;16.73;;
9160;SDS011;4615;51.340;8.288;2022-10-13T06:07:44;18.23;;;15.33;;
9160;SDS011;4615;51.340;8.288;2022-10-13T06:10:12;18.73;;;14.23;;
9160;SDS011;4615;51.340;8.288;2022-10-13T06:12:39;18.57;;;14.40;;
9160;SDS011;4615;51.340;8.288;2022-10-13T06:15:06;19.73;;;15.83;;
9160;SDS011;4615;51.340;8.288;2022-10-13T06:17:34;19.70;;;15.40;;
9160;SDS011;4615;51.340;8.288;2022-10-13T06:20:02;22.57;;;16.13;;
9160;SDS011;4615;51.340;8.288;2022-10-13T06:22:30;20.67;;;15.50;;
9160;SDS011;4615;51.340;8.288;2022-10-13T06:24:56;18.00;;;14.93;;
9160;SDS011;4615;51.340;8.288;2022-10-13T06:27:23;18.73;;;14.27;;
9160;SDS011;4615;51.340;8.288;2022-10-13T06:29:49;20.17;;;15.03;;
9160;SDS011;4615;51.340;8.288;2022-10-13T06:32:16;18.20;;;13.67;;
9160;SDS011;4615;51.340;8.288;2022-10-13T06:34:42;20.10;;;14.80;;
9160;SDS011;4615;51.340;8.288;2022-10-13T06:37:10;24.70;;;15.57;;
9160;SDS011;4615;51.340;8.288;2022-10-13T06:39:36;22.07;;;15.50;;
9160;SDS011;4615;51.340;8.288;2022-10-13T06:42:03;25.23;;;15.33;;
9160;SDS011;4615;51.340;8.288;2022-10-13T06:44:29;18.80;;;14.83;;
9160;SDS011;4615;51.340;8.288;2022-10-13T06:46:56;19.77;;;15.27;;
9160;SDS011;4615;51.340;8.288;2022-10-13T06:49:22;22.37;;;16.33;;
9160;SDS011;4615;51.340;8.288;2022-10-13T06:51:49;21.73;;;16.50;;
9160;SDS011;4615;51.340;8.288;2022-10-13T06:54:17;24.50;;;16.10;;
9160;SDS011;4615;51.340;8.288;2022-10-13T06:56:43;21.47;;;15.83;;
9160;SDS011;4615;51.340;8.288;2022-10-13T06:59:09;22.97;;;16.23;;
9160;SDS011;4615;51.340;8.288;2022-10-13T07:01:36;20.87;;;15.97;;
9160;SDS011;4615;51.340;8.288;2022-10-13T07:04:03;25.60;;;15.93;;
9160;SDS011;4615;51.340;8.288;2022-10-13T07:06:29;21.47;;;16.27;;
9160;SDS011;4615;51.340;8.288;2022-10-13T07:08:55;21.63;;;16.80;;
9160;SDS011;4615;51.340;8.288;2022-10-13T07:11:23;19.37;;;16.03;;
9160;SDS011;4615;51.340;8.288;2022-10-13T07:13:50;21.70;;;16.10;;
9160;SDS011;4615;51.340;8.288;2022-10-13T07:16:19;20.03;;;15.60;;
9160;SDS011;4615;51.340;8.288;2022-10-13T07:18:45;24.50;;;16.90;;
9160;SDS011;4615;51.340;8.288;2022-10-13T07:21:12;25.30;;;17.63;;
9160;SDS011;4615;51.340;8.288;2022-10-13T07:23:38;26.27;;;18.33;;
9160;SDS011;4615;51.340;8.288;2022-10-13T07:26:05;24.00;;;19.47;;
9160;SDS011;4615;51.340;8.288;2022-10-13T07:28:33;24.37;;;18.57;;
9160;SDS011;4615;51.340;8.288;2022-10-13T07:31:04;25.23;;;18.60;;
9160;SDS011;4615;51.340;8.288;2022-10-13T07:33:31;21.60;;;16.47;;
9160;SDS011;4615;51.340;8.288;2022-10-13T07:35:58;25.57;;;21.03;;
9160;SDS011;4615;51.340;8.288;2022-10-13T07:38:24;28.43;;;21.13;;
9160;SDS011;4615;51.340;8.288;2022-10-13T07:40:51;23.97;;;19.63;;
9160;SDS011;4615;51.340;8.288;2022-10-13T07:43:17;24.47;;;18.50;;
9160;SDS011;4615;51.340;8.288;2022-10-13T07:45:45;23.07;;;15.50;;
9160;SDS011;4615;51.340;8.288;2022-10-13T07:48:11;21.37;;;16.73;;
9160;SDS011;4615;51.340;8.288;2022-10-13T07:50:38;24.63;;;20.83;;
9160;SDS011;4615;51.340;8.288;2022-10-13T07:53:04;26.77;;;22.37;;
9160;SDS011;4615;51.340;8.288;2022-10-13T07:55:30;21.87;;;18.60;;
9160;SDS011;4615;51.340;8.288;2022-10-13T07:57:59;20.90;;;17.10;;
9160;SDS011;4615;51.340;8.288;2022-10-13T08:00:26;24.07;;;18.40;;
9160;SDS011;4615;51.340;8.288;2022-10-13T08:02:54;25.57;;;18.30;;
9160;SDS011;4615;51.340;8.288;2022-10-13T08:05:21;23.97;;;18.33;;
9160;SDS011;4615;51.340;8.288;2022-10-13T08:07:47;20.50;;;15.60;;
9160;SDS011;4615;51.340;8.288;2022-10-13T08:10:14;21.87;;;16.63;;
9160;SDS011;4615;51.340;8.288;2022-10-13T08:12:40;20.93;;;14.87;;
9160;SDS011;4615;51.340;8.288;2022-10-13T08:15:07;22.33;;;15.50;;
9160;SDS011;4615;51.340;8.288;2022-10-13T08:17:33;26.87;;;18.13;;
9160;SDS011;4615;51.340;8.288;2022-10-13T08:20:02;30.33;;;22.47;;
9160;SDS011;4615;51.340;8.288;2022-10-13T08:22:29;25.50;;;20.50;;
9160;SDS011;4615;51.340;8.288;2022-10-13T08:24:55;22.67;;;17.00;;
9160;SDS011;4615;51.340;8.288;2022-10-13T08:27:22;21.50;;;18.00;;
9160;SDS011;4615;51.340;8.288;2022-10-13T08:29:49;20.63;;;16.03;;
9160;SDS011;4615;51.340;8.288;2022-10-13T08:32:16;21.20;;;15.37;;
9160;SDS011;4615;51.340;8.288;2022-10-13T08:34:45;25.53;;;16.80;;
9160;SDS011;4615;51.340;8.288;2022-10-13T08:37:13;22.77;;;16.13;;
9160;SDS011;4615;51.340;8.288;2022-10-13T08:39:40;22.10;;;16.20;;
9160;SDS011;4615;51.340;8.288;2022-10-13T08:42:11;23.43;;;17.63;;
9160;SDS011;4615;51.340;8.288;2022-10-13T08:44:38;22.83;;;17.43;;
9160;SDS011;4615;51.340;8.288;2022-10-13T08:47:07;24.63;;;17.80;;
9160;SDS011;4615;51.340;8.288;2022-10-13T08:49:36;25.67;;;19.97;;
9160;SDS011;4615;51.340;8.288;2022-10-13T08:52:02;26.33;;;21.03;;
9160;SDS011;4615;51.340;8.288;2022-10-13T08:54:30;27.50;;;19.97;;
9160;SDS011;4615;51.340;8.288;2022-10-13T08:56:57;23.73;;;20.43;;
9160;SDS011;4615;51.340;8.288;2022-10-13T08:59:24;30.23;;;20.37;;
9160;SDS011;4615;51.340;8.288;2022-10-13T09:01:51;24.77;;;18.33;;
9160;SDS011;4615;51.340;8.288;2022-10-13T09:04:24;26.43;;;18.33;;
9160;SDS011;4615;51.340;8.288;2022-10-13T09:06:52;22.17;;;17.73;;
9160;SDS011;4615;51.340;8.288;2022-10-13T09:09:19;25.27;;;16.83;;
9160;SDS011;4615;51.340;8.288;2022-10-13T09:11:47;26.07;;;18.40;;
9160;SDS011;4615;51.340;8.288;2022-10-13T09:14:18;25.70;;;16.33;;
9160;SDS011;4615;51.340;8.288;2022-10-13T09:16:46;20.03;;;15.83;;
9160;SDS011;4615;51.340;8.288;2022-10-13T09:19:14;26.33;;;16.67;;
9160;SDS011;4615;51.340;8.288;2022-10-13T09:21:42;23.57;;;17.27;;
9160;SDS011;4615;51.340;8.288;2022-10-13T09:24:12;19.33;;;14.33;;
9160;SDS011;4615;51.340;8.288;2022-10-13T09:26:39;18.47;;;14.43;;
9160;SDS011;4615;51.340;8.288;2022-10-13T09:29:10;22.27;;;13.30;;
9160;SDS011;4615;51.340;8.288;2022-10-13T09:31:37;19.30;;;14.53;;
9160;SDS011;4615;51.340;8.288;2022-10-13T09:34:10;19.27;;;14.73;;
9160;SDS011;4615;51.340;8.288;2022-10-13T09:36:37;18.47;;;13.13;;
9160;SDS011;4615;51.340;8.288;2022-10-13T09:39:07;19.07;;;14.53;;
9160;SDS011;4615;51.340;8.288;2022-10-13T09:41:36;20.03;;;14.93;;
9160;SDS011;4615;51.340;8.288;2022-10-13T09:44:06;19.33;;;14.00;;
9160;SDS011;4615;51.340;8.288;2022-10-13T09:46:36;15.93;;;13.47;;
9160;SDS011;4615;51.340;8.288;2022-10-13T09:49:05;17.57;;;12.87;;
9160;SDS011;4615;51.340;8.288;2022-10-13T09:51:33;16.97;;;11.90;;
9160;SDS011;4615;51.340;8.288;2022-10-13T09:54:00;15.20;;;12.07;;
9160;SDS011;4615;51.340;8.288;2022-10-13T09:56:28;14.47;;;10.40;;
9160;SDS011;4615;51.340;8.288;2022-10-13T09:59:04;15.60;;;10.43;;
9160;SDS011;4615;51.340;8.288;2022-10-13T10:01:33;13.40;;;10.50;;
9160;SDS011;4615;51.340;8.288;2022-10-13T10:04:03;14.40;;;10.43;;
9160;SDS011;4615;51.340;8.288;2022-10-13T10:06:31;12.93;;;9.50;;
9160;SDS011;4615;51.340;8.288;2022-10-13T10:08:59;15.93;;;11.10;;
9160;SDS011;4615;51.340;8.288;2022-10-13T10:11:28;15.77;;;11.00;;
9160;SDS011;4615;51.340;8.288;2022-10-13T10:13:56;17.37;;;10.30;;
9160;SDS011;4615;51.340;8.288;2022-10-13T10:16:23;13.33;;;10.20;;
9160;SDS011;4615;51.340;8.288;2022-10-13T10:18:56;11.77;;;9.60;;
9160;SDS011;4615;51.340;8.288;2022-10-13T10:21:26;13.77;;;10.73;;
9160;SDS011;4615;51.340;8.288;2022-10-13T10:23:57;15.50;;;9.23;;
9160;SDS011;4615;51.340;8.288;2022-10-13T10:26:26;15.53;;;9.90;;
9160;SDS011;4615;51.340;8.288;2022-10-13T10:29:00;11.07;;;9.23;;
9160;SDS011;4615;51.340;8.288;2022-10-13T10:31:35;12.23;;;8.97;;
9160;SDS011;4615;51.340;8.288;2022-10-13T10:34:11;13.23;;;9.00;;
9160;SDS011;4615;51.340;8.288;2022-10-13T10:36:44;12.97;;;8.90;;
9160;SDS011;4615;51.340;8.288;2022-10-13T10:39:16;14.73;;;8.83;;
9160;SDS011;4615;51.340;8.288;2022-10-13T10:41:47;13.60;;;8.87;;
9160;SDS011;4615;51.340;8.288;2022-10-13T10:44:16;12.23;;;8.73;;
9160;SDS011;4615;51.340;8.288;2022-10-13T10:46:45;14.63;;;9.97;;
9160;SDS011;4615;51.340;8.288;2022-10-13T10:49:14;14.60;;;9.27;;
9160;SDS011;4615;51.340;8.288;2022-10-13T10:51:43;17.07;;;9.27;;
9160;SDS011;4615;51.340;8.288;2022-10-13T10:54:16;14.10;;;9.07;;
9160;SDS011;4615;51.340;8.288;2022-10-13T10:56:46;16.67;;;8.70;;
9160;SDS011;4615;51.340;8.288;2022-10-13T10:59:17;14.93;;;8.63;;
9160;SDS011;4615;51.340;8.288;2022-10-13T11:01:48;16.33;;;9.00;;
9160;SDS011;4615;51.340;8.288;2022-10-13T11:04:33;14.67;;;8.67;;
9160;SDS011;4615;51.340;8.288;2022-10-13T11:07:07;16.30;;;8.47;;
9160;SDS011;4615;51.340;8.288;2022-10-13T11:12:21;11.67;;;8.00;;
9160;SDS011;4615;51.340;8.288;2022-10-13T11:14:55;11.87;;;7.87;;
9160;SDS011;4615;51.340;8.288;2022-10-13T11:17:27;11.37;;;7.57;;
9160;SDS011;4615;51.340;8.288;2022-10-13T11:19:54;9.53;;;7.07;;
9160;SDS011;4615;51.340;8.288;2022-10-13T11:22:23;9.90;;;7.30;;
9160;SDS011;4615;51.340;8.288;2022-10-13T11:24:54;12.03;;;7.33;;
9160;SDS011;4615;51.340;8.288;2022-10-13T11:27:25;11.10;;;7.77;;
9160;SDS011;4615;51.340;8.288;2022-10-13T11:29:54;8.23;;;6.40;;
9160;SDS011;4615;51.340;8.288;2022-10-13T11:35:16;7.97;;;5.80;;
9160;SDS011;4615;51.340;8.288;2022-10-13T11:37:46;6.57;;;4.77;;
9160;SDS011;4615;51.340;8.288;2022-10-13T11:40:15;9.13;;;5.53;;
9160;SDS011;4615;51.340;8.288;2022-10-13T11:43:06;8.30;;;5.73;;
9160;SDS011;4615;51.340;8.288;2022-10-13T11:45:39;8.00;;;5.20;;
9160;SDS011;4615;51.340;8.288;2022-10-13T11:50:51;8.07;;;6.27;;
9160;SDS011;4615;51.340;8.288;2022-10-13T11:53:26;9.60;;;5.17;;
9160;SDS011;4615;51.340;8.288;2022-10-13T11:55:53;10.33;;;5.57;;
9160;SDS011;4615;51.340;8.288;2022-10-13T11:58:21;10.43;;;5.60;;
9160;SDS011;4615;51.340;8.288;2022-10-13T12:00:49;9.73;;;6.00;;
9160;SDS011;4615;51.340;8.288;2022-10-13T12:03:19;10.67;;;6.40;;
9160;SDS011;4615;51.340;8.288;2022-10-13T12:05:46;7.87;;;5.50;;
9160;SDS011;4615;51.340;8.288;2022-10-13T12:08:13;9.03;;;5.73;;
9160;SDS011;4615;51.340;8.288;2022-10-13T12:10:40;9.47;;;5.63;;
9160;SDS011;4615;51.340;8.288;2022-10-13T12:13:14;10.63;;;7.13;;
9160;SDS011;4615;51.340;8.288;2022-10-13T12:15:44;12.43;;;6.53;;
9160;SDS011;4615;51.340;8.288;2022-10-13T12:18:21;497.40;;;36.57;;
9160;SDS011;4615;51.340;8.288;2022-10-13T12:20:51;10.33;;;6.90;;
9160;SDS011;4615;51.340;8.288;2022-10-13T12:23:18;10.33;;;6.47;;
9160;SDS011;4615;51.340;8.288;2022-10-13T12:25:46;7.77;;;6.13;;
9160;SDS011;4615;51.340;8.288;2022-10-13T12:28:16;11.67;;;6.43;;
9160;SDS011;4615;51.340;8.288;2022-10-13T12:30:47;11.17;;;6.80;;
9160;SDS011;4615;51.340;8.288;2022-10-13T12:33:17;10.63;;;6.53;;
9160;SDS011;4615;51.340;8.288;2022-10-13T12:35:44;9.30;;;6.10;;
9160;SDS011;4615;51.340;8.288;2022-10-13T12:38:12;8.07;;;6.77;;
9160;SDS011;4615;51.340;8.288;2022-10-13T12:40:41;10.63;;;6.13;;
9160;SDS011;4615;51.340;8.288;2022-10-13T12:43:09;10.57;;;6.37;;
9160;SDS011;4615;51.340;8.288;2022-10-13T12:45:40;10.13;;;6.30;;
9160;SDS011;4615;51.340;8.288;2022-10-13T12:50:49;8.20;;;5.93;;
9160;SDS011;4615;51.340;8.288;2022-10-13T12:53:16;8.10;;;5.80;;
9160;SDS011;4615;51.340;8.288;2022-10-13T12:55:54;10.13;;;5.90;;
9160;SDS011;4615;51.340;8.288;2022-10-13T12:58:25;10.27;;;6.47;;
9160;SDS011;4615;51.340;8.288;2022-10-13T13:00:56;10.97;;;6.30;;
9160;SDS011;4615;51.340;8.288;2022-10-13T13:03:24;12.20;;;6.90;;
9160;SDS011;4615;51.340;8.288;2022-10-13T13:06:05;8.67;;;5.60;;
9160;SDS011;4615;51.340;8.288;2022-10-13T13:08:31;11.47;;;6.47;;
9160;SDS011;4615;51.340;8.288;2022-10-13T13:10:58;9.07;;;6.10;;
9160;SDS011;4615;51.340;8.288;2022-10-13T13:13:26;8.70;;;6.17;;
9160;SDS011;4615;51.340;8.288;2022-10-13T13:15:53;17.27;;;6.23;;
9160;SDS011;4615;51.340;8.288;2022-10-13T13:18:38;9.90;;;5.93;;
9160;SDS011;4615;51.340;8.288;2022-10-13T13:21:06;63.80;;;9.50;;
9160;SDS011;4615;51.340;8.288;2022-10-13T13:23:32;9.47;;;6.43;;
9160;SDS011;4615;51.340;8.288;2022-10-13T13:26:01;10.87;;;6.60;;
9160;SDS011;4615;51.340;8.288;2022-10-13T13:28:30;7.97;;;5.10;;
9160;SDS011;4615;51.340;8.288;2022-10-13T13:30:56;9.67;;;6.37;;
9160;SDS011;4615;51.340;8.288;2022-10-13T13:33:23;10.43;;;5.67;;
9160;SDS011;4615;51.340;8.288;2022-10-13T13:35:50;10.87;;;5.87;;
9160;SDS011;4615;51.340;8.288;2022-10-13T13:38:16;11.67;;;6.07;;
9160;SDS011;4615;51.340;8.288;2022-10-13T13:40:43;8.67;;;6.00;;
9160;SDS011;4615;51.340;8.288;2022-10-13T13:43:09;11.17;;;6.50;;
9160;SDS011;4615;51.340;8.288;2022-10-13T13:45:37;11.33;;;6.07;;
9160;SDS011;4615;51.340;8.288;2022-10-13T13:48:04;9.63;;;6.27;;
9160;SDS011;4615;51.340;8.288;2022-10-13T13:50:31;9.43;;;6.80;;
9160;SDS011;4615;51.340;8.288;2022-10-13T13:52:58;10.37;;;6.00;;
9160;SDS011;4615;51.340;8.288;2022-10-13T13:55:25;11.27;;;6.17;;
9160;SDS011;4615;51.340;8.288;2022-10-13T13:57:51;9.47;;;5.97;;
9160;SDS011;4615;51.340;8.288;2022-10-13T14:00:18;12.87;;;6.53;;
9160;SDS011;4615;51.340;8.288;2022-10-13T14:02:46;10.97;;;6.17;;
9160;SDS011;4615;51.340;8.288;2022-10-13T14:05:12;10.00;;;5.97;;
9160;SDS011;4615;51.340;8.288;2022-10-13T14:07:39;12.67;;;6.87;;
9160;SDS011;4615;51.340;8.288;2022-10-13T14:10:07;9.83;;;7.13;;
9160;SDS011;4615;51.340;8.288;2022-10-13T14:12:34;10.83;;;6.77;;
9160;SDS011;4615;51.340;8.288;2022-10-13T14:15:00;12.87;;;7.03;;
9160;SDS011;4615;51.340;8.288;2022-10-13T14:17:27;8.83;;;6.37;;
9160;SDS011;4615;51.340;8.288;2022-10-13T14:19:55;10.33;;;6.93;;
9160;SDS011;4615;51.340;8.288;2022-10-13T14:22:21;11.13;;;7.37;;
9160;SDS011;4615;51.340;8.288;2022-10-13T14:24:47;12.03;;;7.77;;
9160;SDS011;4615;51.340;8.288;2022-10-13T14:27:14;12.50;;;6.53;;
9160;SDS011;4615;51.340;8.288;2022-10-13T14:29:40;12.30;;;7.43;;
9160;SDS011;4615;51.340;8.288;2022-10-13T14:32:07;12.47;;;7.90;;
9160;SDS011;4615;51.340;8.288;2022-10-13T14:34:33;12.50;;;7.60;;
9160;SDS011;4615;51.340;8.288;2022-10-13T14:37:01;10.27;;;7.93;;
9160;SDS011;4615;51.340;8.288;2022-10-13T14:39:27;11.60;;;8.10;;
9160;SDS011;4615;51.340;8.288;2022-10-13T14:41:54;12.00;;;8.17;;
9160;SDS011;4615;51.340;8.288;2022-10-13T14:44:20;13.17;;;8.83;;
9160;SDS011;4615;51.340;8.288;2022-10-13T14:46:46;20.07;;;9.07;;
9160;SDS011;4615;51.340;8.288;2022-10-13T14:49:13;9.93;;;7.90;;
9160;SDS011;4615;51.340;8.288;2022-10-13T14:51:39;10.97;;;8.60;;
9160;SDS011;4615;51.340;8.288;2022-10-13T14:54:07;14.47;;;8.87;;
9160;SDS011;4615;51.340;8.288;2022-10-13T14:56:33;12.83;;;8.43;;
9160;SDS011;4615;51.340;8.288;2022-10-13T14:59:01;11.63;;;8.23;;
9160;SDS011;4615;51.340;8.288;2022-10-13T15:01:28;16.53;;;8.97;;
9160;SDS011;4615;51.340;8.288;2022-10-13T15:03:54;11.07;;;8.37;;
9160;SDS011;4615;51.340;8.288;2022-10-13T15:06:21;14.10;;;9.20;;
9160;SDS011;4615;51.340;8.288;2022-10-13T15:08:48;14.07;;;8.73;;